Gainesville, New York
Current Conditions -  °F | °C
As of 12:30 AM on Friday 28 Nov 2014 (Local Time) from KDSV Reporting Station
Light Snow Light Snow  
Wind Chill: 20°   Ceiling: 1800
Heat Index: 28°   Visibility: 9mi
Dew Point: 25°   Wind: 8mph
Humidity: 88%   Direction: 310°NW
Pressure: 30.1"   Gusts: NA
Location:  42.64°N, 78.13°W
Report Text: KDSV 280530Z AUTO 31007KT 9SM -SN SCT012 BKN018 OVC025 M02/M04 A3010 RMK AO2 P0000 T10221039
Loading
Personal Weather Stations






























Interactive Weather Map New forecast layout! Learn more

10-Day Weather Forecast

Advertisements
Track Severe Weather on mobile